createdAt,value
2022-11-05T00:00:29.914Z,14.55
2022-11-05T00:03:20.624Z,16.65
2022-11-05T00:06:11.989Z,20.98
2022-11-05T00:09:03.414Z,13.68
2022-11-05T00:11:53.212Z,20.58
2022-11-05T00:14:49.038Z,16.80
2022-11-05T00:17:21.349Z,27.13
2022-11-05T00:19:53.725Z,18.00
2022-11-05T00:22:44.613Z,20.27
2022-11-05T00:25:19.188Z,16.48
2022-11-05T00:27:53.098Z,18.92
2022-11-05T00:30:26.955Z,16.73
2022-11-05T00:33:02.353Z,16.40
2022-11-05T00:35:34.704Z,17.13
2022-11-05T00:38:06.989Z,15.10
2022-11-05T00:40:40.079Z,19.08
2022-11-05T00:43:30.881Z,14.48
2022-11-05T00:46:03.252Z,20.35
2022-11-05T00:48:53.243Z,17.50
2022-11-05T00:51:25.615Z,13.32
2022-11-05T00:53:57.958Z,16.42
2022-11-05T00:56:30.966Z,16.75
2022-11-05T00:59:03.269Z,14.50
2022-11-05T01:01:35.750Z,16.85
2022-11-05T01:04:08.209Z,13.20
2022-11-05T01:06:40.521Z,16.15
2022-11-05T01:09:12.874Z,10.10
2022-11-05T01:11:45.873Z,13.80
2022-11-05T01:14:18.204Z,11.38
2022-11-05T01:16:50.523Z,16.25
2022-11-05T01:19:22.813Z,14.60
2022-11-05T01:21:55.187Z,13.00
2022-11-05T01:24:27.749Z,12.75
2022-11-05T01:27:00.787Z,11.75
2022-11-05T01:29:33.104Z,21.90
2022-11-05T01:32:05.580Z,21.70
2022-11-05T01:34:37.938Z,17.90
2022-11-05T01:37:10.342Z,21.63
2022-11-05T01:39:42.633Z,21.00
2022-11-05T01:42:21.138Z,25.70
2022-11-05T01:44:58.472Z,23.50
2022-11-05T01:47:41.356Z,22.52
2022-11-05T01:50:24.181Z,16.92
2022-11-05T01:53:02.374Z,18.42
2022-11-05T01:55:41.069Z,20.02
2022-11-05T01:58:18.097Z,23.10
2022-11-05T02:00:50.516Z,19.58
2022-11-05T02:03:23.613Z,19.80
2022-11-05T02:05:58.734Z,16.02
2022-11-05T02:08:45.784Z,22.00
2022-11-05T02:11:19.858Z,24.58
2022-11-05T02:13:52.913Z,17.63
2022-11-05T02:16:36.958Z,20.60
2022-11-05T02:19:49.266Z,20.98
2022-11-05T02:22:57.308Z,22.42
2022-11-05T02:25:57.260Z,20.92
2022-11-05T02:28:57.144Z,15.45
2022-11-05T02:31:38.779Z,18.75
2022-11-05T02:34:23.867Z,20.67
2022-11-05T02:37:01.957Z,17.60
2022-11-05T02:39:42.857Z,18.88
2022-11-05T02:42:29.686Z,21.60
2022-11-05T02:45:10.327Z,25.77
2022-11-05T02:47:47.331Z,22.63
2022-11-05T02:50:25.970Z,24.27
2022-11-05T02:53:01.963Z,22.15
2022-11-05T02:55:38.791Z,37.20
2022-11-05T02:58:11.535Z,19.33
2022-11-05T03:00:49.165Z,22.10
2022-11-05T03:03:34.333Z,21.15
2022-11-05T03:06:51.752Z,17.55
2022-11-05T03:09:42.991Z,26.17
2022-11-05T03:12:26.505Z,23.38
2022-11-05T03:15:10.974Z,22.58
2022-11-05T03:17:50.805Z,22.80
2022-11-05T03:20:27.932Z,20.90
2022-11-05T03:23:09.740Z,23.38
2022-11-05T03:25:48.291Z,22.23
2022-11-05T03:28:25.344Z,26.35
2022-11-05T03:30:58.704Z,22.38
2022-11-05T03:33:35.037Z,18.80
2022-11-05T03:36:15.451Z,23.67
2022-11-05T03:38:52.514Z,23.50
2022-11-05T03:41:26.530Z,22.52
2022-11-05T03:44:03.149Z,24.85
2022-11-05T03:46:41.812Z,20.20
2022-11-05T03:49:21.187Z,28.23
2022-11-05T03:51:58.609Z,25.15
2022-11-05T03:54:32.626Z,24.80
2022-11-05T03:57:08.788Z,24.48
2022-11-05T03:59:44.644Z,25.23
2022-11-05T04:02:19.455Z,23.73
2022-11-05T04:04:52.668Z,26.08
2022-11-05T04:07:44.000Z,27.70
2022-11-05T04:10:34.516Z,30.95
2022-11-05T04:13:24.398Z,21.08
2022-11-05T04:16:17.628Z,24.40
2022-11-05T04:18:49.970Z,24.63
2022-11-05T04:21:40.300Z,26.67
2022-11-05T04:24:14.022Z,24.90
2022-11-05T04:26:46.778Z,19.13
2022-11-05T04:29:36.950Z,20.40
2022-11-05T04:32:09.317Z,22.70
2022-11-05T04:34:41.738Z,15.30
2022-11-05T04:37:14.086Z,20.60
2022-11-05T04:39:47.076Z,17.25
2022-11-05T04:42:19.472Z,21.45
2022-11-05T04:44:51.835Z,15.40
2022-11-05T04:47:24.193Z,28.92
2022-11-05T04:49:56.573Z,26.75
2022-11-05T04:52:28.861Z,17.88
2022-11-05T04:55:01.908Z,20.00
2022-11-05T04:57:34.800Z,18.65
2022-11-05T05:00:08.957Z,19.50
2022-11-05T05:02:41.502Z,15.77
2022-11-05T05:05:14.115Z,22.42
2022-11-05T05:07:46.458Z,20.45
2022-11-05T05:12:58.936Z,20.23
2022-11-05T05:15:31.328Z,20.55
2022-11-05T05:18:03.929Z,23.30
2022-11-05T05:20:54.305Z,24.40
2022-11-05T05:23:26.784Z,20.73
2022-11-05T05:25:59.803Z,28.15
2022-11-05T05:28:32.142Z,16.25
2022-11-05T05:31:04.509Z,19.30
2022-11-05T05:33:36.886Z,20.42
2022-11-05T05:36:11.524Z,13.43
2022-11-05T05:38:44.028Z,17.88
2022-11-05T05:41:17.323Z,22.38
2022-11-05T05:43:50.232Z,19.10
2022-11-05T05:46:22.571Z,20.50
2022-11-05T05:48:54.909Z,28.80
2022-11-05T05:51:27.200Z,24.10
2022-11-05T05:53:59.525Z,26.40
2022-11-05T05:56:32.550Z,23.85
2022-11-05T05:59:05.873Z,20.42
2022-11-05T06:01:38.403Z,22.25
2022-11-05T06:04:10.944Z,28.02
2022-11-05T06:06:46.146Z,30.33
2022-11-05T06:09:18.581Z,27.98
2022-11-05T06:11:51.603Z,21.90
2022-11-05T06:14:24.006Z,19.80
2022-11-05T06:16:56.361Z,23.67
2022-11-05T06:19:28.756Z,23.30
2022-11-05T06:22:01.048Z,22.23
2022-11-05T06:24:33.416Z,26.88
2022-11-05T06:27:06.397Z,23.25
2022-11-05T06:29:38.765Z,22.45
2022-11-05T06:32:11.173Z,23.38
2022-11-05T06:34:43.532Z,17.75
2022-11-05T06:37:16.134Z,19.45
2022-11-05T06:39:48.602Z,23.02
2022-11-05T06:42:21.602Z,38.33
2022-11-05T06:44:53.976Z,30.40
2022-11-05T06:47:26.346Z,28.42
2022-11-05T06:49:58.725Z,28.00
2022-11-05T06:52:31.034Z,23.13
2022-11-05T06:55:03.865Z,26.73
2022-11-05T06:57:38.396Z,24.02
2022-11-05T07:00:11.476Z,24.65
2022-11-05T07:02:44.414Z,19.92
2022-11-05T07:05:17.136Z,16.75
2022-11-05T07:07:49.492Z,15.15
2022-11-05T07:10:21.894Z,17.42
2022-11-05T07:12:54.897Z,15.15
2022-11-05T07:15:27.226Z,20.85
2022-11-05T07:18:00.460Z,14.50
2022-11-05T07:20:34.444Z,16.55
2022-11-05T07:23:11.030Z,13.88
2022-11-05T07:25:43.688Z,14.50
2022-11-05T07:28:16.661Z,14.52
2022-11-05T07:30:48.974Z,17.40
2022-11-05T07:33:21.318Z,16.42
2022-11-05T07:35:55.735Z,14.30
2022-11-05T07:38:28.123Z,13.98
2022-11-05T07:41:00.553Z,16.80
2022-11-05T07:43:33.643Z,14.48
2022-11-05T07:46:09.814Z,12.43
2022-11-05T07:48:45.077Z,19.73
2022-11-05T07:51:17.409Z,18.13
2022-11-05T07:53:49.740Z,17.50
2022-11-05T07:56:22.359Z,15.65
2022-11-05T07:58:55.572Z,21.70
2022-11-05T08:01:28.039Z,20.23
2022-11-05T08:04:00.468Z,18.23
2022-11-05T08:06:32.893Z,17.02
2022-11-05T08:09:05.349Z,17.75
2022-11-05T08:11:37.708Z,22.38
2022-11-05T08:14:10.679Z,16.20
2022-11-05T08:16:43.129Z,21.92
2022-11-05T08:19:15.531Z,11.88
2022-11-05T08:21:47.964Z,16.45
2022-11-05T08:24:20.286Z,10.10
2022-11-05T08:26:53.078Z,8.88
2022-11-05T08:29:26.097Z,10.43
2022-11-05T08:31:58.525Z,14.05
2022-11-05T08:34:30.885Z,11.45
2022-11-05T08:37:03.548Z,7.57
2022-11-05T08:39:35.950Z,8.15
2022-11-05T08:42:08.333Z,12.00
2022-11-05T08:44:41.430Z,13.48
2022-11-05T08:47:13.814Z,8.90
2022-11-05T08:49:46.149Z,9.07
2022-11-05T08:52:18.510Z,11.65
2022-11-05T08:54:50.879Z,9.98
2022-11-05T08:57:23.277Z,35.60
2022-11-05T08:59:56.326Z,27.48
2022-11-05T09:02:28.794Z,10.32
2022-11-05T09:05:01.200Z,11.75
2022-11-05T09:07:33.668Z,9.77
2022-11-05T09:10:06.670Z,9.68
2022-11-05T09:12:39.069Z,12.20
2022-11-05T09:15:12.097Z,11.48
2022-11-05T09:17:44.529Z,8.40
2022-11-05T09:20:16.881Z,11.60
2022-11-05T09:22:49.259Z,9.48
2022-11-05T09:25:21.648Z,12.45
2022-11-05T09:27:54.041Z,17.27
2022-11-05T09:30:33.777Z,9.90
2022-11-05T09:33:06.189Z,10.07
2022-11-05T09:35:39.412Z,23.67
2022-11-05T09:38:12.334Z,14.15
2022-11-05T09:40:52.952Z,14.65
2022-11-05T09:43:31.880Z,8.50
2022-11-05T09:46:11.477Z,11.02
2022-11-05T09:48:47.758Z,7.60
2022-11-05T09:51:23.882Z,9.63
2022-11-05T09:53:59.174Z,27.02
2022-11-05T09:56:36.178Z,10.63
2022-11-05T09:59:16.809Z,9.23
2022-11-05T10:01:51.701Z,12.43
2022-11-05T10:04:25.769Z,14.02
2022-11-05T10:07:00.266Z,13.27
2022-11-05T10:09:37.616Z,12.98
2022-11-05T10:12:15.568Z,14.90
2022-11-05T10:14:55.718Z,12.75
2022-11-05T10:17:37.884Z,16.45
2022-11-05T10:20:19.557Z,11.63
2022-11-05T10:22:56.328Z,13.10
2022-11-05T10:25:31.724Z,29.42
2022-11-05T10:28:05.797Z,28.77
2022-11-05T10:30:38.349Z,15.48
2022-11-05T10:33:14.864Z,12.25
2022-11-05T10:35:50.660Z,15.20
2022-11-05T10:38:23.229Z,16.17
2022-11-05T10:41:08.609Z,16.20
2022-11-05T10:43:47.497Z,19.85
2022-11-05T10:46:29.732Z,16.25
2022-11-05T10:49:18.035Z,17.58
2022-11-05T10:51:56.058Z,24.98
2022-11-05T10:54:33.292Z,14.93
2022-11-05T10:57:27.281Z,20.83
2022-11-05T11:00:21.500Z,23.23
2022-11-05T11:02:57.883Z,19.90
2022-11-05T11:05:35.232Z,13.43
2022-11-05T11:08:22.514Z,28.58
2022-11-05T11:10:57.285Z,17.65
2022-11-05T11:13:49.748Z,23.13
2022-11-05T11:16:23.751Z,57.28
2022-11-05T11:18:58.544Z,29.77
2022-11-05T11:21:32.080Z,33.35
2022-11-05T11:24:06.346Z,24.20
2022-11-05T11:26:40.042Z,23.65
2022-11-05T11:29:16.142Z,18.85
2022-11-05T11:31:48.613Z,38.10
2022-11-05T11:34:28.617Z,18.13
2022-11-05T11:37:07.152Z,17.42
2022-11-05T11:39:42.468Z,14.80
2022-11-05T11:42:22.423Z,14.55
2022-11-05T11:44:58.426Z,16.35
2022-11-05T11:47:32.874Z,12.57
2022-11-05T11:50:05.742Z,11.68
2022-11-05T11:52:38.738Z,16.05
2022-11-05T11:55:21.863Z,11.32
2022-11-05T11:58:05.918Z,11.02
2022-11-05T12:00:47.949Z,11.35
2022-11-05T12:03:31.472Z,11.15
2022-11-05T12:06:23.805Z,9.55
2022-11-05T12:09:06.974Z,25.15
2022-11-05T12:11:46.570Z,33.88
2022-11-05T12:14:29.941Z,25.42
2022-11-05T12:17:16.429Z,19.95
2022-11-05T12:20:09.161Z,23.15
2022-11-05T12:23:01.352Z,18.85
2022-11-05T12:25:38.982Z,20.58
2022-11-05T12:28:25.738Z,31.23
2022-11-05T12:31:09.549Z,21.40
2022-11-05T12:33:50.945Z,18.35
2022-11-05T12:36:39.343Z,15.57
2022-11-05T12:39:53.812Z,20.17
2022-11-05T12:42:40.980Z,22.48
2022-11-05T12:45:27.040Z,13.30
2022-11-05T12:48:10.595Z,15.32
2022-11-05T12:50:45.472Z,21.13
2022-11-05T12:53:34.309Z,23.05
2022-11-05T12:56:13.895Z,15.82
2022-11-05T13:01:26.642Z,22.77
2022-11-05T13:04:05.938Z,20.55
2022-11-05T13:06:41.196Z,16.23
2022-11-05T13:09:18.792Z,19.77
2022-11-05T13:11:54.329Z,17.85
2022-11-05T13:14:30.979Z,17.92
2022-11-05T13:17:07.373Z,17.05
2022-11-05T13:19:45.335Z,19.85
2022-11-05T13:22:28.471Z,15.13
2022-11-05T13:25:05.638Z,20.25
2022-11-05T13:27:47.320Z,16.15
2022-11-05T13:30:25.830Z,15.50
2022-11-05T13:33:02.470Z,18.75
2022-11-05T13:35:41.247Z,16.38
2022-11-05T13:38:38.568Z,19.10
2022-11-05T13:41:25.557Z,13.65
2022-11-05T13:44:12.733Z,15.05
2022-11-05T13:47:11.738Z,16.02
2022-11-05T13:49:58.775Z,19.73
2022-11-05T13:52:56.003Z,15.75
2022-11-05T13:55:52.224Z,15.40
2022-11-05T13:59:00.088Z,15.25
2022-11-05T14:01:43.927Z,15.90
2022-11-05T14:04:27.840Z,44.13
2022-11-05T14:07:09.792Z,18.35
2022-11-05T14:09:43.700Z,17.45
2022-11-05T14:12:24.055Z,32.70
2022-11-05T14:15:02.667Z,30.60
2022-11-05T14:17:55.745Z,23.23
2022-11-05T14:20:59.547Z,27.23
2022-11-05T14:23:48.280Z,15.30
2022-11-05T14:26:23.100Z,16.83
2022-11-05T14:29:37.233Z,23.80
2022-11-05T14:32:25.682Z,23.25
2022-11-05T14:35:03.260Z,29.45
2022-11-05T14:37:40.912Z,30.38
2022-11-05T14:40:46.188Z,27.55
2022-11-05T14:43:22.145Z,21.98
2022-11-05T14:45:57.628Z,24.80
2022-11-05T14:48:37.715Z,19.25
2022-11-05T14:51:26.362Z,34.97
2022-11-05T14:54:03.336Z,35.85
2022-11-05T14:56:43.072Z,22.77
2022-11-05T14:59:50.413Z,25.77
2022-11-05T15:02:26.580Z,30.35
2022-11-05T15:05:37.746Z,22.20
2022-11-05T15:08:53.790Z,21.63
2022-11-05T15:11:32.173Z,22.90
2022-11-05T15:14:07.384Z,20.48
2022-11-05T15:16:43.165Z,52.50
2022-11-05T15:19:20.124Z,48.72
2022-11-05T15:21:56.732Z,51.28
2022-11-05T15:24:30.732Z,30.15
2022-11-05T15:27:11.400Z,22.30
2022-11-05T15:29:43.901Z,38.58
2022-11-05T15:32:18.048Z,28.98
2022-11-05T15:34:52.073Z,23.38
2022-11-05T15:37:25.994Z,33.40
2022-11-05T15:39:58.436Z,32.03
2022-11-05T15:42:31.495Z,22.65
2022-11-05T15:45:04.733Z,38.22
2022-11-05T15:47:37.239Z,25.48
2022-11-05T15:50:15.130Z,28.08
2022-11-05T15:52:49.514Z,19.92
2022-11-05T15:55:23.793Z,34.40
2022-11-05T15:57:59.852Z,33.20
2022-11-05T16:00:46.993Z,52.58
2022-11-05T16:03:27.587Z,41.58
2022-11-05T16:06:01.493Z,36.28
2022-11-05T16:08:34.053Z,33.30
2022-11-05T16:11:06.452Z,36.17
2022-11-05T16:13:41.241Z,45.83
2022-11-05T16:16:25.679Z,45.35
2022-11-05T16:18:58.132Z,33.13
2022-11-05T16:21:30.588Z,55.70
2022-11-05T16:24:03.216Z,48.58
2022-11-05T16:29:33.920Z,48.17
2022-11-05T16:32:15.798Z,43.60
2022-11-05T16:34:50.628Z,58.15
2022-11-05T16:37:25.740Z,75.38
2022-11-05T16:39:58.127Z,60.42
2022-11-05T16:42:39.088Z,53.80
2022-11-05T16:45:14.094Z,55.92
2022-11-05T16:47:46.917Z,66.97
2022-11-05T16:50:23.424Z,84.05
2022-11-05T16:52:55.788Z,76.43
2022-11-05T16:55:28.630Z,70.18
2022-11-05T16:58:01.099Z,84.60
2022-11-05T17:00:34.310Z,82.47
2022-11-05T17:03:06.710Z,67.97
2022-11-05T17:05:39.122Z,82.30
2022-11-05T17:08:11.948Z,77.22
2022-11-05T17:10:44.642Z,94.70
2022-11-05T17:13:18.297Z,88.80
2022-11-05T17:15:51.678Z,88.80
2022-11-05T17:18:24.595Z,77.43
2022-11-05T17:20:57.237Z,82.95
2022-11-05T17:23:31.859Z,83.70
2022-11-05T17:26:06.733Z,77.03
2022-11-05T17:28:40.279Z,69.10
2022-11-05T17:31:13.724Z,74.60
2022-11-05T17:33:46.088Z,87.55
2022-11-05T17:36:18.424Z,89.55
2022-11-05T17:38:51.360Z,81.82
2022-11-05T17:41:24.499Z,76.07
2022-11-05T17:43:57.666Z,68.55
2022-11-05T17:46:30.708Z,84.43
2022-11-05T17:49:03.272Z,81.05
2022-11-05T17:51:35.644Z,79.55
2022-11-05T17:54:08.102Z,78.60
2022-11-05T17:56:44.727Z,74.20
2022-11-05T17:59:17.378Z,51.30
2022-11-05T18:01:50.516Z,49.60
2022-11-05T18:04:23.103Z,81.68
2022-11-05T18:06:55.414Z,82.40
2022-11-05T18:09:27.924Z,84.22
2022-11-05T18:12:00.305Z,87.88
2022-11-05T18:14:32.825Z,74.68
2022-11-05T18:17:05.864Z,87.32
2022-11-05T18:19:39.049Z,81.00
2022-11-05T18:22:11.484Z,79.35
2022-11-05T18:24:43.891Z,75.45
2022-11-05T18:27:16.230Z,71.47
2022-11-05T18:29:48.670Z,55.28
2022-11-05T18:32:21.733Z,56.83
2022-11-05T18:34:54.125Z,56.95
2022-11-05T18:37:26.657Z,68.50
2022-11-05T18:39:58.996Z,62.35
2022-11-05T18:42:31.425Z,62.63
2022-11-05T18:45:05.331Z,51.83
2022-11-05T18:47:38.391Z,72.07
2022-11-05T18:50:10.889Z,67.90
2022-11-05T18:52:43.717Z,66.20
2022-11-05T18:55:16.177Z,72.40
2022-11-05T18:57:48.602Z,61.28
2022-11-05T19:00:20.992Z,64.28
2022-11-05T19:02:54.593Z,62.30
2022-11-05T19:05:29.704Z,57.67
2022-11-05T19:08:02.559Z,50.67
2022-11-05T19:10:34.993Z,51.58
2022-11-05T19:13:07.341Z,51.03
2022-11-05T19:15:41.769Z,61.65
2022-11-05T19:18:15.014Z,56.75
2022-11-05T19:20:47.518Z,55.13
2022-11-05T19:23:19.869Z,60.13
2022-11-05T19:25:52.278Z,57.88
2022-11-05T19:28:24.653Z,62.00
2022-11-05T19:30:57.050Z,52.42
2022-11-05T19:33:30.437Z,52.90
2022-11-05T19:36:05.072Z,68.43
2022-11-05T19:38:38.058Z,66.78
2022-11-05T19:41:13.310Z,61.28
2022-11-05T19:43:46.122Z,67.43
2022-11-05T19:46:20.386Z,75.82
2022-11-05T19:48:53.829Z,64.20
2022-11-05T19:51:28.996Z,56.42
2022-11-05T19:54:02.628Z,45.85
2022-11-05T19:56:37.638Z,49.15
2022-11-05T19:59:11.452Z,42.30
2022-11-05T20:01:44.110Z,39.95
2022-11-05T20:04:17.321Z,44.58
2022-11-05T20:06:49.754Z,48.10
2022-11-05T20:09:23.146Z,44.00
2022-11-05T20:11:56.518Z,44.90
2022-11-05T20:14:29.377Z,62.28
2022-11-05T20:17:01.759Z,68.38
2022-11-05T20:19:34.850Z,72.18
2022-11-05T20:22:07.226Z,66.35
2022-11-05T20:24:39.553Z,73.93
2022-11-05T20:27:11.923Z,78.50
2022-11-05T20:29:44.277Z,68.93
2022-11-05T20:32:16.664Z,71.38
2022-11-05T20:34:49.761Z,63.67
2022-11-05T20:37:22.502Z,65.78
2022-11-05T20:39:55.050Z,57.75
2022-11-05T20:42:27.422Z,59.08
2022-11-05T20:44:59.986Z,59.08
2022-11-05T20:47:32.515Z,75.45
2022-11-05T20:50:07.519Z,60.95
2022-11-05T20:52:40.324Z,54.83
2022-11-05T20:55:12.637Z,62.97
2022-11-05T20:57:44.977Z,71.85
2022-11-05T21:00:17.852Z,71.65
2022-11-05T21:02:50.447Z,72.78
2022-11-05T21:05:23.609Z,156.90
2022-11-05T21:07:56.561Z,125.05
2022-11-05T21:10:29.464Z,118.20
2022-11-05T21:13:01.826Z,82.43
2022-11-05T21:15:34.200Z,53.90
2022-11-05T21:18:06.649Z,40.33
2022-11-05T21:20:39.880Z,61.55
2022-11-05T21:23:13.274Z,83.45
2022-11-05T21:25:46.002Z,96.32
2022-11-05T21:28:18.470Z,80.43
2022-11-05T21:30:50.810Z,65.43
2022-11-05T21:33:23.218Z,42.35
2022-11-05T21:35:56.698Z,71.13
2022-11-05T21:38:29.165Z,55.65
2022-11-05T21:41:02.665Z,54.22
2022-11-05T21:43:35.159Z,78.70
2022-11-05T21:46:07.493Z,92.90
2022-11-05T21:48:40.025Z,93.32
2022-11-05T21:51:31.653Z,80.38
2022-11-05T21:54:22.443Z,89.47
2022-11-05T21:57:13.416Z,89.28
2022-11-05T21:59:48.911Z,90.00
2022-11-05T22:02:23.205Z,91.97
2022-11-05T22:04:59.133Z,79.47
2022-11-05T22:07:34.644Z,71.20
2022-11-05T22:10:14.643Z,59.50
2022-11-05T22:12:48.366Z,76.22
2022-11-05T22:15:20.770Z,73.30
2022-11-05T22:17:53.131Z,67.32
2022-11-05T22:20:25.572Z,68.25
2022-11-05T22:22:58.611Z,60.83
2022-11-05T22:25:31.033Z,58.72
2022-11-05T22:28:03.663Z,47.85
2022-11-05T22:30:36.237Z,87.22
2022-11-05T22:33:08.531Z,92.07
2022-11-05T22:35:40.962Z,90.93
2022-11-05T22:38:14.290Z,77.45
2022-11-05T22:40:46.863Z,76.18
2022-11-05T22:43:19.225Z,76.13
2022-11-05T22:45:51.596Z,74.85
2022-11-05T22:48:23.926Z,79.55
2022-11-05T22:51:01.676Z,60.83
2022-11-05T22:53:36.445Z,58.95
2022-11-05T22:56:12.563Z,46.83
2022-11-05T22:58:45.273Z,34.03
2022-11-05T23:01:18.671Z,31.27
2022-11-05T23:03:52.969Z,37.38
2022-11-05T23:06:45.748Z,36.80
2022-11-05T23:09:38.685Z,56.08
2022-11-05T23:12:21.505Z,64.38
2022-11-05T23:14:55.648Z,55.65
2022-11-05T23:17:46.954Z,58.97
2022-11-05T23:20:39.103Z,65.20
2022-11-05T23:23:30.757Z,54.58
2022-11-05T23:26:24.321Z,68.35
2022-11-05T23:28:56.685Z,68.55
2022-11-05T23:31:47.110Z,66.35
2022-11-05T23:34:19.468Z,47.78
2022-11-05T23:37:11.877Z,51.13
2022-11-05T23:39:44.302Z,50.40
2022-11-05T23:42:35.333Z,48.20
2022-11-05T23:45:27.515Z,42.97
2022-11-05T23:48:18.443Z,46.33
2022-11-05T23:50:56.677Z,54.67
2022-11-05T23:53:30.713Z,41.25
2022-11-05T23:56:06.740Z,51.13
2022-11-05T23:58:41.273Z,60.35
